Time;durP1;ratioP1;P1;durP2;ratioP2;P2;SDS_P1;SDS_P2;PMS_P1;PMS_P2;Temp;Humidity;BMP_temperature;BMP_pressure;BME280_temperature;BME280_humidity;BME280_pressure;Samples;Min_cycle;Max_cycle;Signal;HPM_P1;HPM_P2
2024/02/03 00:01:37;;;;;;;23.30;5.90;;;;;;;0.67;74.05;99164.05;107585;1253;60179;-40
2024/02/03 00:04:05;;;;;;;19.10;5.40;;;;;;;0.63;74.15;99159.06;107534;1253;73823;-39
2024/02/03 00:06:34;;;;;;;;;;;;;;;0.67;74.12;99160.42;107648;1253;68721;-39
2024/02/03 00:09:11;;;;;;;20.60;5.40;;;;;;;0.74;73.97;99153.67;107551;1254;72726;-39
2024/02/03 00:11:38;;;;;;;21.90;5.50;;;;;;;0.72;74.09;99150.17;107521;1253;60545;-39
2024/02/03 00:14:06;;;;;;;24.80;6.70;;;;;;;0.70;74.24;99147.77;107577;1253;60285;-40
2024/02/03 00:16:34;;;;;;;23.40;6.00;;;;;;;0.62;74.19;99134.91;107603;1253;74172;-39
2024/02/03 00:19:01;;;;;;;18.70;5.60;;;;;;;0.69;74.35;99138.93;106870;1253;1003482;-40
2024/02/03 00:21:29;;;;;;;18.30;5.10;;;;;;;0.74;74.16;99135.54;107562;1253;72693;-39
2024/02/03 00:23:58;;;;;;;21.70;5.90;;;;;;;0.80;73.93;99127.17;107678;1253;60403;-39
2024/02/03 00:26:25;;;;;;;21.00;5.70;;;;;;;0.79;74.15;99128.30;107623;1253;60438;-39
2024/02/03 00:28:54;;;;;;;18.70;5.40;;;;;;;0.77;74.37;99125.53;107572;1253;72593;-39
2024/02/03 00:31:21;;;;;;;15.80;6.00;;;;;;;0.76;74.39;99119.84;107605;1256;68337;-39
2024/02/03 00:33:49;;;;;;;25.60;5.80;;;;;;;0.74;74.37;99118.27;107564;1253;72632;-39
2024/02/03 00:36:24;;;;;;;18.80;6.70;;;;;;;0.73;74.37;99108.33;107571;1253;60588;-39
2024/02/03 00:38:52;;;;;;;24.00;6.60;;;;;;;0.84;74.16;99108.60;107681;1253;60723;-39
2024/02/03 00:41:19;;;;;;;19.20;6.40;;;;;;;0.84;74.11;99103.16;107601;1253;73945;-39
2024/02/03 00:43:47;;;;;;;22.20;7.70;;;;;;;0.82;74.13;99099.10;107519;1253;68323;-39
2024/02/03 00:46:14;;;;;;;21.30;6.90;;;;;;;0.82;74.02;99101.52;107619;1258;71426;-39
2024/02/03 00:48:42;;;;;;;17.90;6.30;;;;;;;0.86;74.03;99093.04;107598;1253;60431;-39
2024/02/03 00:51:11;;;;;;;24.00;6.90;;;;;;;0.94;73.84;99100.08;107626;1252;60405;-38
2024/02/03 00:53:41;;;;;;;21.20;6.60;;;;;;;0.95;73.95;99098.71;107571;1256;73850;-39
2024/02/03 00:56:10;;;;;;;21.10;7.40;;;;;;;0.93;74.01;99101.30;107557;1253;68526;-38
2024/02/03 00:58:37;;;;;;;21.40;6.90;;;;;;;0.90;73.90;99107.42;107562;1253;72671;-39
2024/02/03 01:01:05;;;;;;;21.50;7.10;;;;;;;0.89;74.09;99102.52;107547;1253;60280;-39
2024/02/03 01:03:33;;;;;;;21.40;6.80;;;;;;;0.95;73.90;99105.38;107539;1253;59999;-39
2024/02/03 01:06:01;;;;;;;20.20;6.40;;;;;;;1.01;73.89;99093.92;106802;1253;1003603;-39
2024/02/03 01:08:29;;;;;;;20.50;7.50;;;;;;;1.01;73.91;99084.68;107549;1256;68381;-40
2024/02/03 01:10:56;;;;;;;22.40;7.20;;;;;;;1.00;73.83;99072.11;107552;1253;72253;-39
2024/02/03 01:13:24;;;;;;;24.00;7.10;;;;;;;0.98;73.91;99064.84;107601;1252;60446;-40
2024/02/03 01:15:51;;;;;;;21.20;6.50;;;;;;;1.00;73.93;99068.21;107648;1253;60284;-40
2024/02/03 01:18:19;;;;;;;22.60;6.80;;;;;;;1.07;73.75;99053.10;107650;1253;72651;-39
2024/02/03 01:20:48;;;;;;;21.90;7.20;;;;;;;1.09;73.73;99036.38;107612;1253;66963;-39
2024/02/03 01:23:15;;;;;;;20.40;6.70;;;;;;;1.08;73.70;99027.50;107606;1257;72667;-40
2024/02/03 01:25:43;;;;;;;24.20;7.30;;;;;;;1.06;73.99;99021.84;107617;1253;60425;-40
2024/02/03 01:28:11;;;;;;;23.20;6.50;;;;;;;1.03;73.89;99018.05;107589;1252;60309;-39
2024/02/03 01:30:38;;;;;;;18.10;5.50;;;;;;;1.08;74.11;99017.15;107628;1253;72645;-40
2024/02/03 01:33:06;;;;;;;24.50;7.00;;;;;;;1.13;74.42;99010.23;107642;1253;68363;-40
2024/02/03 01:35:33;;;;;;;24.00;6.30;;;;;;;1.12;74.77;99012.81;107615;1257;72658;-40
2024/02/03 01:38:01;;;;;;;20.40;6.50;;;;;;;1.09;75.36;99005.70;107614;1253;60543;-40
2024/02/03 01:40:29;;;;;;;24.20;6.60;;;;;;;1.04;75.89;99007.67;107660;1252;60617;-39
2024/02/03 01:42:59;;;;;;;18.40;5.80;;;;;;;1.05;76.18;98992.83;107647;1256;72638;-40
2024/02/03 01:45:28;;;;;;;19.90;6.10;;;;;;;1.07;76.55;98990.52;107672;1254;68312;-39
2024/02/03 01:47:56;;;;;;;19.20;6.40;;;;;;;1.07;76.65;98980.17;107678;1254;72992;-40
2024/02/03 01:50:24;;;;;;;26.00;6.50;;;;;;;1.04;77.04;98973.69;107593;1254;60290;-39
2024/02/03 01:52:51;;;;;;;21.90;6.20;;;;;;;0.99;77.18;98973.48;107368;1253;60111;-39
2024/02/03 01:55:21;;;;;;;17.40;5.30;;;;;;;1.00;77.36;98976.41;107565;1253;73856;-39
2024/02/03 01:57:49;;;;;;;16.00;5.10;;;;;;;1.03;77.23;98975.47;107644;1251;67545;-40
2024/02/03 02:00:17;;;;;;;20.50;6.00;;;;;;;1.03;77.24;98969.06;107619;1253;72672;-39
2024/02/03 02:02:45;;;;;;;22.70;5.70;;;;;;;1.01;77.34;98955.95;107674;1253;60421;-39
2024/02/03 02:05:13;;;;;;;19.50;5.70;;;;;;;0.99;77.57;98947.48;107643;1256;60319;-39
2024/02/03 02:07:42;;;;;;;21.70;5.40;;;;;;;0.99;77.76;98945.84;107530;1253;73853;-39
2024/02/03 02:10:10;;;;;;;22.40;6.20;;;;;;;1.04;77.60;98952.44;107636;1254;68576;-39
2024/02/03 02:12:38;;;;;;;13.60;5.20;;;;;;;1.12;77.35;98951.85;107650;1257;72683;-39
2024/02/03 02:15:07;;;;;;;15.10;5.70;;;;;;;1.14;77.34;98941.06;107650;1254;60382;-39
2024/02/03 02:17:36;;;;;;;15.90;6.50;;;;;;;1.13;77.29;98939.81;107701;1257;60409;-39
2024/02/03 02:20:07;;;;;;;16.10;5.60;;;;;;;1.11;77.34;98932.72;107623;1253;73866;-39
2024/02/03 02:22:36;;;;;;;18.00;4.80;;;;;;;1.11;77.27;98934.70;107626;1256;68701;-40
2024/02/03 02:25:04;;;;;;;19.80;5.00;;;;;;;1.15;77.00;98926.45;107668;1253;71122;-39
2024/02/03 02:27:32;;;;;;;18.90;4.90;;;;;;;1.24;77.01;98920.52;107706;1253;60409;-39
2024/02/03 02:30:00;;;;;;;21.70;5.10;;;;;;;1.24;76.74;98916.66;107611;1254;60328;-40
2024/02/03 02:32:28;;;;;;;19.60;6.00;;;;;;;1.22;77.17;98910.95;107632;1251;73860;-40
2024/02/03 02:34:56;;;;;;;20.60;5.60;;;;;;;1.17;77.45;98910.13;107628;1256;67094;-40
2024/02/03 02:37:24;;;;;;;19.90;4.90;;;;;;;1.14;77.74;98902.45;107588;1253;71148;-39
2024/02/03 02:39:51;;;;;;;19.60;5.20;;;;;;;1.19;77.94;98902.69;107628;1253;60908;-40
2024/02/03 02:42:19;;;;;;;17.10;5.50;;;;;;;1.23;78.18;98902.73;107527;1253;60307;-40
2024/02/03 02:44:47;;;;;;;22.00;6.00;;;;;;;1.22;78.31;98895.45;107541;1251;73939;-39
2024/02/03 02:47:14;;;;;;;18.80;5.70;;;;;;;1.20;78.56;98889.15;107580;1252;68302;-39
2024/02/03 02:49:42;;;;;;;16.80;5.10;;;;;;;1.17;78.72;98880.21;107596;1259;73263;-40
2024/02/03 02:52:09;;;;;;;16.40;5.00;;;;;;;1.18;78.62;98871.37;107525;1256;60899;-39
2024/02/03 02:54:37;;;;;;;22.50;5.80;;;;;;;1.25;78.58;98867.05;107555;1256;60358;-39
2024/02/03 02:57:05;;;;;;;17.40;5.50;;;;;;;1.27;78.37;98862.09;107582;1253;72879;-40
2024/02/03 02:59:32;;;;;;;20.30;5.60;;;;;;;1.25;78.71;98859.19;107553;1253;68343;-40
2024/02/03 03:02:00;;;;;;;14.30;4.90;;;;;;;1.22;78.64;98854.54;107569;1253;73077;-40
2024/02/03 03:04:27;;;;;;;14.30;5.20;;;;;;;1.22;78.50;98853.58;107560;1256;60886;-40
2024/02/03 03:06:55;;;;;;;21.60;5.90;;;;;;;1.26;78.40;98848.70;107638;1254;60495;-40
2024/02/03 03:09:23;;;;;;;17.30;4.90;;;;;;;1.24;78.59;98847.77;107607;1255;73857;-40
2024/02/03 03:11:50;;;;;;;17.10;5.70;;;;;;;1.20;78.79;98845.68;107628;1253;68876;-40
2024/02/03 03:14:18;;;;;;;19.70;5.80;;;;;;;1.17;79.09;98842.68;107588;1253;71488;-40
2024/02/03 03:16:45;;;;;;;15.10;4.80;;;;;;;1.20;78.89;98840.50;107601;1251;60341;-39
2024/02/03 03:19:13;;;;;;;18.20;5.50;;;;;;;1.22;79.17;98839.81;107626;1257;60953;-39
2024/02/03 03:21:41;;;;;;;17.60;5.00;;;;;;;1.19;79.38;98833.40;107684;1253;73925;-39
2024/02/03 03:24:08;;;;;;;22.00;5.30;;;;;;;1.16;79.74;98828.39;107580;1253;67424;-40
2024/02/03 03:26:42;;;;;;;19.60;5.60;;;;;;;1.19;80.10;98824.85;107550;1253;72654;-40
2024/02/03 03:29:13;;;;;;;19.10;5.50;;;;;;;1.21;80.23;98810.02;107574;1254;60434;-39
2024/02/03 03:31:43;;;;;;;22.00;6.30;;;;;;;1.18;80.67;98812.45;107601;1252;60399;-40
2024/02/03 03:34:10;;;;;;;18.60;5.50;;;;;;;1.13;81.26;98807.79;107572;1254;73823;-40
2024/02/03 03:36:38;;;;;;;18.00;5.00;;;;;;;1.14;81.65;98801.45;107546;1254;68332;-39
2024/02/03 03:39:08;;;;;;;18.70;6.00;;;;;;;1.17;82.17;98802.64;107576;1257;72972;-39
2024/02/03 03:41:36;;;;;;;16.70;5.50;;;;;;;1.14;82.47;98795.95;107610;1254;60287;-40
2024/02/03 03:44:03;;;;;;;19.10;6.00;;;;;;;1.09;82.85;98798.92;107595;1256;60357;-39
2024/02/03 03:46:31;;;;;;;17.70;5.60;;;;;;;1.09;83.36;98791.51;107601;1257;72881;-39
2024/02/03 03:48:58;;;;;;;16.70;5.40;;;;;;;1.11;83.28;98784.70;107617;1253;66866;-40
2024/02/03 03:51:26;;;;;;;18.80;6.00;;;;;;;1.12;83.66;98772.66;107604;1254;71383;-40
2024/02/03 03:53:53;;;;;;;19.90;6.70;;;;;;;1.09;83.80;98764.23;107630;1253;60194;-39
2024/02/03 03:56:21;;;;;;;23.00;6.60;;;;;;;1.06;83.91;98755.64;107602;1254;60447;-39
2024/02/03 03:58:48;;;;;;;19.10;5.50;;;;;;;1.09;84.22;98753.55;107621;1254;72489;-40
2024/02/03 04:01:17;;;;;;;14.10;5.20;;;;;;;1.13;84.10;98747.70;107642;1253;66436;-39
2024/02/03 04:03:45;;;;;;;14.90;6.50;;;;;;;1.11;84.48;98741.36;107654;1253;72663;-39
2024/02/03 04:06:12;;;;;;;16.80;6.40;;;;;;;1.07;84.72;98738.96;107589;1259;61166;-40
2024/02/03 04:08:40;;;;;;;16.20;6.00;;;;;;;1.08;85.01;98722.44;105885;1254;1003017;-40
2024/02/03 04:12:39;;;;;;;17.70;6.00;;;;;;;1.11;85.24;98703.61;104353;1289;600851;-39
2024/02/03 04:15:07;;;;;;;19.00;5.60;;;;;;;1.07;85.26;98700.24;106603;1264;59302;-40
2024/02/03 04:17:36;;;;;;;18.30;5.90;;;;;;;1.04;85.51;98694.31;106648;1263;59245;-40
2024/02/03 04:20:05;;;;;;;19.10;5.10;;;;;;;1.07;85.69;98694.22;106711;1264;72246;-40
2024/02/03 04:22:32;;;;;;;17.90;6.00;;;;;;;1.12;85.63;98691.20;106727;1264;67484;-40
2024/02/03 04:25:00;;;;;;;22.70;6.40;;;;;;;1.08;85.93;98684.11;106652;1269;71618;-40
2024/02/03 04:27:27;;;;;;;16.90;6.50;;;;;;;1.01;86.38;98682.66;106672;1263;160204;-40
2024/02/03 04:29:55;;;;;;;20.80;6.70;;;;;;;1.00;86.56;98680.38;106857;1263;59334;-40
2024/02/03 04:32:23;;;;;;;18.90;6.00;;;;;;;1.02;86.65;98671.32;106841;1263;72306;-40
2024/02/03 04:34:50;;;;;;;15.80;5.60;;;;;;;1.01;86.79;98660.30;106875;1263;67443;-40
2024/02/03 04:37:18;;;;;;;19.00;6.40;;;;;;;0.96;87.07;98652.38;106855;1263;71419;-40
2024/02/03 04:39:45;;;;;;;23.30;6.50;;;;;;;0.92;87.60;98640.45;106876;1262;60912;-40
2024/02/03 04:42:13;;;;;;;18.50;6.20;;;;;;;0.96;87.43;98631.45;106866;1263;60002;-40
2024/02/03 04:44:42;;;;;;;17.30;6.40;;;;;;;0.97;87.62;98624.59;106852;1264;71805;-40
2024/02/03 04:47:09;;;;;;;16.70;6.30;;;;;;;0.95;87.91;98618.92;106786;1263;67434;-40
2024/02/03 04:49:37;;;;;;;19.30;6.60;;;;;;;0.89;88.53;98600.27;106705;1262;72371;-39
2024/02/03 04:52:05;;;;;;;16.10;5.90;;;;;;;0.91;88.58;98595.94;107399;1255;59755;-39
2024/02/03 04:54:32;;;;;;;13.10;5.90;;;;;;;0.95;88.67;98581.40;107399;1253;60033;-39
2024/02/03 04:57:00;;;;;;;17.50;6.50;;;;;;;0.92;88.96;98576.63;107304;1253;73320;-40
2024/02/03 04:59:27;;;;;;;15.60;6.10;;;;;;;0.89;89.32;98568.24;107296;1253;68413;-39
2024/02/03 05:01:55;;;;;;;14.00;5.60;;;;;;;0.91;88.90;98565.92;105778;1253;1004138;-39
2024/02/03 05:04:22;;;;;;;16.90;6.20;;;;;;;0.97;88.64;98562.12;107298;1256;60887;-40
2024/02/03 05:06:50;;;;;;;17.40;6.70;;;;;;;0.98;88.53;98555.71;107391;1253;59625;-39
2024/02/03 05:09:20;;;;;;;17.30;5.90;;;;;;;0.94;88.40;98551.70;107442;1253;73439;-39
2024/02/03 05:11:48;;;;;;;15.40;6.10;;;;;;;0.90;88.60;98541.80;107362;1253;69165;-39
2024/02/03 05:14:16;;;;;;;17.30;6.30;;;;;;;0.92;88.42;98540.23;107380;1258;72698;-39
2024/02/03 05:16:43;;;;;;;19.30;6.50;;;;;;;0.93;88.35;98535.55;107393;1254;61014;-39
2024/02/03 05:19:12;;;;;;;17.20;6.40;;;;;;;0.91;88.38;98525.05;107400;1254;60092;-39
2024/02/03 05:21:44;;;;;;;18.60;6.40;;;;;;;0.86;88.54;98514.95;107406;1253;72963;-39
2024/02/03 05:24:12;;;;;;;14.10;6.00;;;;;;;0.87;88.67;98521.92;107392;1259;67408;-39
2024/02/03 05:26:39;;;;;;;15.10;6.40;;;;;;;0.90;88.57;98513.45;107355;1256;72467;-39
2024/02/03 05:29:07;;;;;;;14.20;6.10;;;;;;;0.89;88.81;98505.14;106637;1257;1002903;-39
2024/02/03 05:31:34;;;;;;;15.70;6.50;;;;;;;0.86;88.93;98515.45;107408;1254;60205;-39
2024/02/03 05:34:02;;;;;;;17.30;6.50;;;;;;;0.84;89.27;98511.46;107380;1254;73107;-39
2024/02/03 05:36:30;;;;;;;14.80;5.80;;;;;;;0.89;89.20;98497.05;107315;1254;67644;-39
2024/02/03 05:38:58;;;;;;;15.60;6.30;;;;;;;0.90;89.16;98500.06;107308;1257;71192;-39
2024/02/03 05:41:25;;;;;;;9.50;4.80;;;;;;;0.86;89.31;98494.21;107305;1257;59594;-40
2024/02/03 05:43:53;;;;;;;15.40;5.50;;;;;;;0.88;89.44;98499.16;107301;1256;59858;-39
2024/02/03 05:46:20;;;;;;;15.10;6.30;;;;;;;0.95;89.30;98506.84;107276;1257;73009;-39
2024/02/03 05:48:48;;;;;;;11.80;5.70;;;;;;;0.91;89.45;98502.23;107347;1254;67439;-39
2024/02/03 05:51:17;;;;;;;12.60;5.50;;;;;;;0.87;89.49;98502.92;107365;1256;71410;-39
2024/02/03 05:53:45;;;;;;;12.70;5.30;;;;;;;0.91;89.34;98493.34;107392;1254;60853;-39
2024/02/03 05:56:12;;;;;;;9.90;5.50;;;;;;;0.95;89.11;98489.38;107417;1255;59991;-39
2024/02/03 05:58:40;;;;;;;12.30;7.10;;;;;;;0.92;89.31;98490.27;107411;1254;73015;-39
2024/02/03 06:01:08;;;;;;;11.90;5.60;;;;;;;0.88;89.74;98492.84;107402;1259;68364;-39
2024/02/03 06:03:37;;;;;;;9.10;5.00;;;;;;;0.92;89.61;98489.23;107380;1255;72459;-39
2024/02/03 06:06:05;;;;;;;8.20;4.50;;;;;;;0.96;89.57;98475.16;107409;1256;59619;-39
2024/02/03 06:08:52;;;;;;;12.70;6.00;;;;;;;0.93;89.46;98487.02;107366;1254;59286;-40
2024/02/03 06:11:19;;;;;;;10.80;5.90;;;;;;;0.90;89.85;98470.06;107330;1254;71836;-39
2024/02/03 06:13:47;;;;;;;9.80;5.70;;;;;;;0.95;89.95;98465.37;107408;1257;67279;-39
2024/02/03 06:16:14;;;;;;;8.10;5.30;;;;;;;0.97;89.53;98465.67;107712;1250;73159;-39
2024/02/03 06:18:42;;;;;;;11.40;5.90;;;;;;;0.91;89.83;98465.87;107778;1253;59609;-39
2024/02/03 06:21:12;;;;;;;10.10;5.40;;;;;;;0.87;90.19;98463.45;107738;1250;60021;-38
2024/02/03 06:23:39;;;;;;;11.30;5.90;;;;;;;0.89;90.41;98463.48;107745;1251;70896;-39
2024/02/03 06:26:09;;;;;;;11.20;5.80;;;;;;;0.91;90.47;98458.58;107758;1251;68420;-39
2024/02/03 06:28:37;;;;;;;11.80;6.10;;;;;;;0.91;90.43;98451.09;107734;1254;71692;-39
2024/02/03 06:31:04;;;;;;;10.40;5.80;;;;;;;0.85;90.68;98438.95;107706;1256;60912;-39
2024/02/03 06:33:32;;;;;;;10.90;5.70;;;;;;;0.85;90.71;98440.09;107736;1250;59615;-39
2024/02/03 06:36:00;;;;;;;9.20;5.30;;;;;;;0.88;90.57;98426.20;107729;1250;72971;-40
2024/02/03 06:38:28;;;;;;;13.80;6.10;;;;;;;0.90;90.78;98425.73;107750;1251;68514;-39
2024/02/03 06:40:56;;;;;;;13.90;6.30;;;;;;;0.86;91.00;98428.04;107704;1252;72439;-39
2024/02/03 06:43:24;;;;;;;12.80;6.00;;;;;;;0.85;91.15;98423.36;107709;1253;59974;-39
2024/02/03 06:45:51;;;;;;;12.80;6.10;;;;;;;0.90;91.04;98417.73;107724;1250;60036;-39
2024/02/03 06:48:19;;;;;;;9.70;6.20;;;;;;;0.92;91.21;98411.63;107770;1250;73070;-39
2024/02/03 06:50:49;;;;;;;10.50;5.90;;;;;;;0.88;90.95;98411.27;107723;1250;67091;-39
2024/02/03 06:53:16;;;;;;;9.90;5.40;;;;;;;0.86;91.32;98410.20;107637;1250;72641;-39
2024/02/03 06:55:44;;;;;;;9.90;6.10;;;;;;;0.91;91.13;98403.05;107545;1251;59778;-38
2024/02/03 06:58:11;;;;;;;8.90;6.20;;;;;;;0.94;91.26;98397.02;107606;1256;60103;-39
2024/02/03 07:00:39;;;;;;;16.20;7.30;;;;;;;0.92;91.46;98383.51;107621;1251;73153;-39
2024/02/03 07:03:06;;;;;;;10.10;5.90;;;;;;;0.92;91.48;98377.63;107706;1250;67119;-39
2024/02/03 07:05:34;;;;;;;12.10;6.10;;;;;;;0.97;91.41;98369.98;107717;1250;70414;-39
2024/02/03 07:08:02;;;;;;;9.60;5.60;;;;;;;0.89;91.16;98348.10;107737;1250;59577;-39
2024/02/03 07:10:29;;;;;;;12.80;6.90;;;;;;;1.00;91.24;98357.61;107707;1250;59889;-39
2024/02/03 07:12:59;;;;;;;12.70;7.10;;;;;;;0.89;91.35;98338.35;107706;1250;72975;-38
2024/02/03 07:15:27;;;;;;;9.90;6.10;;;;;;;0.97;91.69;98356.02;107742;1251;67097;-39
2024/02/03 07:17:55;;;;;;;10.50;5.90;;;;;;;0.99;91.84;98354.43;107620;1251;72661;-39
2024/02/03 07:20:23;;;;;;;9.70;6.20;;;;;;;1.01;92.00;98346.52;107735;1250;60816;-39
2024/02/03 07:22:50;;;;;;;12.50;7.20;;;;;;;1.02;91.86;98346.16;107640;1250;60104;-39
2024/02/03 07:25:18;;;;;;;10.70;6.30;;;;;;;0.98;92.11;98344.73;107749;1250;72962;-39
2024/02/03 07:27:45;;;;;;;11.00;6.50;;;;;;;0.99;92.41;98348.88;107645;1250;67185;-40
2024/02/03 07:30:13;;;;;;;11.30;7.10;;;;;;;1.00;92.59;98348.46;107643;1251;72684;-39
2024/02/03 07:32:42;;;;;;;10.90;6.30;;;;;;;1.02;92.66;98352.72;107718;1250;59648;-39
2024/02/03 07:35:10;;;;;;;10.80;7.40;;;;;;;1.05;92.67;98350.86;107746;1251;59617;-40
2024/02/03 07:37:38;;;;;;;8.30;5.30;;;;;;;1.02;92.80;98339.62;107724;1250;71626;-39
2024/02/03 07:40:07;;;;;;;11.00;6.40;;;;;;;1.02;92.78;98343.11;107746;1250;66396;-39
2024/02/03 07:42:35;;;;;;;13.20;6.90;;;;;;;1.06;92.70;98340.98;107783;1251;72854;-40
2024/02/03 07:45:03;;;;;;;8.70;5.90;;;;;;;1.08;92.27;98329.05;107664;1250;59660;-39
2024/02/03 07:47:32;;;;;;;9.20;5.90;;;;;;;1.12;92.22;98321.42;107663;1251;60046;-39
2024/02/03 07:50:00;;;;;;;11.70;6.90;;;;;;;1.16;92.04;98321.28;107753;1250;71775;-39
2024/02/03 07:52:28;;;;;;;9.70;5.80;;;;;;;1.21;91.83;98322.66;107745;1251;68679;-40
2024/02/03 07:54:56;;;;;;;9.10;6.00;;;;;;;1.24;91.62;98310.81;107739;1250;71388;-40
2024/02/03 07:57:24;;;;;;;9.20;6.00;;;;;;;1.23;91.86;98308.65;107751;1250;59639;-39
2024/02/03 07:59:51;;;;;;;10.40;5.60;;;;;;;1.28;91.65;98298.00;107734;1250;59115;-40
2024/02/03 08:02:19;;;;;;;11.60;6.60;;;;;;;1.35;91.59;98297.10;107743;1250;71763;-40
2024/02/03 08:04:46;;;;;;;10.20;7.40;;;;;;;1.38;91.51;98294.55;107745;1250;68352;-39
2024/02/03 08:07:13;;;;;;;11.60;6.00;;;;;;;1.35;91.60;98283.82;107764;1250;72745;-39
2024/02/03 08:09:41;;;;;;;8.80;6.20;;;;;;;1.45;91.34;98287.27;107743;1250;59586;-40
2024/02/03 08:12:09;;;;;;;7.00;5.00;;;;;;;1.54;90.96;98282.47;107749;1250;59132;-39
2024/02/03 08:14:36;;;;;;;7.90;5.30;;;;;;;1.55;90.86;98284.42;107765;1250;72050;-39
2024/02/03 08:17:04;;;;;;;7.90;4.80;;;;;;;1.55;90.95;98292.66;107704;1251;68738;-40
2024/02/03 08:19:32;;;;;;;8.30;4.80;;;;;;;1.61;90.81;98286.02;107574;1250;71146;-40
2024/02/03 08:22:00;;;;;;;6.10;4.70;;;;;;;1.68;90.57;98277.04;107576;1250;60284;-40
2024/02/03 08:24:27;;;;;;;7.10;5.10;;;;;;;1.69;90.41;98271.89;107621;1250;60136;-40
2024/02/03 08:26:55;;;;;;;7.40;5.10;;;;;;;1.69;90.43;98268.00;107693;1256;73871;-39
2024/02/03 08:29:22;;;;;;;7.40;5.20;;;;;;;1.76;90.29;98266.79;107620;1250;68410;-40
2024/02/03 08:31:50;;;;;;;7.50;5.10;;;;;;;1.82;89.91;98269.91;107619;1256;72683;-39
2024/02/03 08:34:17;;;;;;;8.00;5.40;;;;;;;1.81;90.04;98268.48;107596;1251;60396;-39
2024/02/03 08:36:45;;;;;;;7.80;5.60;;;;;;;1.79;90.17;98266.13;107714;1250;60022;-40
2024/02/03 08:39:13;;;;;;;8.80;5.70;;;;;;;1.85;90.06;98259.95;107759;1251;73810;-40
2024/02/03 08:42:00;;;;;;;8.20;5.10;;;;;;;1.89;89.85;98253.05;107704;1251;67116;-40
2024/02/03 08:44:27;;;;;;;11.30;6.30;;;;;;;1.83;90.06;98243.52;107716;1256;71920;-39
2024/02/03 08:46:55;;;;;;;6.90;5.00;;;;;;;1.78;90.39;98239.31;107702;1256;60904;-40
2024/02/03 08:49:22;;;;;;;7.50;5.00;;;;;;;1.82;90.27;98238.15;107701;1251;60434;-40
2024/02/03 08:51:50;;;;;;;7.90;5.60;;;;;;;1.86;90.34;98238.52;107703;1250;72578;-39
2024/02/03 08:54:18;;;;;;;8.00;5.60;;;;;;;1.84;90.56;98242.34;107671;1251;67272;-40
2024/02/03 08:56:45;;;;;;;7.60;5.30;;;;;;;1.81;90.73;98236.14;107588;1251;71406;-40
2024/02/03 08:59:13;;;;;;;6.40;5.00;;;;;;;1.85;90.72;98226.72;107690;1251;60306;-39
2024/02/03 09:01:41;;;;;;;7.40;4.90;;;;;;;1.91;90.74;98226.55;107658;1250;59338;-39
2024/02/03 09:04:10;;;;;;;6.20;5.00;;;;;;;1.90;90.72;98224.83;107659;1255;74335;-40
2024/02/03 09:06:37;;;;;;;6.10;3.90;;;;;;;1.88;91.10;98218.83;107592;1256;67686;-40
2024/02/03 09:09:05;;;;;;;8.90;5.40;;;;;;;1.92;91.02;98212.74;107683;1255;72661;-39
2024/02/03 09:11:33;;;;;;;7.50;5.00;;;;;;;1.97;90.78;98212.88;107718;1250;59871;-40
2024/02/03 09:14:03;;;;;;;6.80;5.00;;;;;;;1.97;90.91;98202.86;107760;1250;59584;-40
2024/02/03 09:16:30;;;;;;;6.90;5.20;;;;;;;1.95;91.14;98197.67;107704;1251;76009;-39
2024/02/03 09:18:58;;;;;;;7.00;5.00;;;;;;;2.00;90.95;98193.64;107708;1250;67430;-39
2024/02/03 09:21:26;;;;;;;9.00;6.20;;;;;;;2.06;91.04;98180.17;107690;1251;71849;-40
2024/02/03 09:23:54;;;;;;;7.50;5.90;;;;;;;2.07;91.20;98180.30;107758;1254;60540;-39
2024/02/03 09:26:22;;;;;;;7.50;5.70;;;;;;;2.07;91.42;98167.90;107699;1256;60287;-39
2024/02/03 09:28:52;;;;;;;7.50;5.40;;;;;;;2.13;91.41;98167.73;107668;1250;72557;-40
2024/02/03 09:31:19;;;;;;;7.00;4.90;;;;;;;2.21;91.18;98162.64;106209;1256;1003041;-40
2024/02/03 09:33:47;;;;;;;7.70;5.10;;;;;;;2.22;91.35;98155.63;107695;1256;72769;-39
2024/02/03 09:36:15;;;;;;;8.10;5.20;;;;;;;2.20;91.58;98160.32;107668;1250;60284;-40
2024/02/03 09:38:43;;;;;;;8.10;4.00;;;;;;;2.26;91.40;98160.17;107619;1251;60264;-40
2024/02/03 09:41:10;;;;;;;8.20;5.30;;;;;;;2.30;91.23;98158.40;107583;1251;73780;-40
2024/02/03 09:43:38;;;;;;;6.60;4.70;;;;;;;2.30;91.29;98158.31;107591;1251;67669;-39
2024/02/03 09:46:06;;;;;;;6.50;4.90;;;;;;;2.27;91.53;98155.17;107600;1250;72433;-40
2024/02/03 09:48:33;;;;;;;6.00;4.50;;;;;;;2.29;91.59;98145.93;107574;1251;60113;-40
2024/02/03 09:51:01;;;;;;;5.80;4.40;;;;;;;2.35;91.43;98145.41;107647;1250;60399;-39
2024/02/03 09:53:28;;;;;;;8.30;4.80;;;;;;;2.35;91.65;98139.02;107636;1251;73840;-39
2024/02/03 09:55:59;;;;;;;5.00;4.00;;;;;;;2.34;91.69;98132.86;107582;1256;66411;-40
2024/02/03 09:58:26;;;;;;;5.50;3.90;;;;;;;2.40;91.52;98127.09;107580;1251;72700;-40
2024/02/03 10:00:54;;;;;;;6.10;4.30;;;;;;;2.46;91.65;98123.37;107613;1255;60405;-39
2024/02/03 10:03:22;;;;;;;5.60;4.10;;;;;;;2.46;91.53;98112.36;107677;1250;60134;-40
2024/02/03 10:06:03;;;;;;;4.90;3.60;;;;;;;2.46;91.56;98111.31;107715;1251;74084;-40
2024/02/03 10:08:30;;;;;;;7.20;4.40;;;;;;;2.51;91.33;98103.36;107765;1253;67617;-40
2024/02/03 10:10:58;;;;;;;7.00;4.20;;;;;;;2.56;91.18;98095.25;107637;1253;72447;-40
2024/02/03 10:13:26;;;;;;;5.10;3.90;;;;;;;2.55;91.29;98086.89;106836;1253;1003802;-40
2024/02/03 10:16:01;;;;;;;6.40;3.80;;;;;;;2.58;91.11;98088.66;107625;1253;60432;-40
2024/02/03 10:18:33;;;;;;;5.40;4.30;;;;;;;2.64;91.18;98084.63;107646;1251;72567;-40
2024/02/03 10:21:01;;;;;;;6.00;4.40;;;;;;;2.69;91.05;98087.44;107670;1254;67704;-40
2024/02/03 10:23:29;;;;;;;5.80;4.20;;;;;;;2.68;91.26;98077.40;107724;1253;72463;-40
2024/02/03 10:25:58;;;;;;;5.20;4.00;;;;;;;2.70;91.25;98079.83;107575;1251;60427;-40
2024/02/03 10:28:26;;;;;;;4.40;3.40;;;;;;;2.76;91.04;98077.11;107625;1253;60162;-40
2024/02/03 10:30:55;;;;;;;5.60;3.60;;;;;;;2.82;91.01;98070.00;107637;1252;73066;-40
2024/02/03 10:33:28;;;;;;;5.70;4.00;;;;;;;2.81;91.05;98074.27;107617;1257;67536;-40
2024/02/03 10:35:55;;;;;;;4.80;3.60;;;;;;;2.81;91.07;98075.80;107628;1256;71736;-40
2024/02/03 10:38:23;;;;;;;5.70;4.20;;;;;;;2.90;91.21;98070.69;107582;1257;60543;-40
2024/02/03 10:40:50;;;;;;;6.50;3.70;;;;;;;2.89;91.06;98061.04;107624;1257;60363;-40
2024/02/03 10:43:21;;;;;;;8.00;4.10;;;;;;;2.93;90.88;98064.05;107524;1253;73093;-40
2024/02/03 10:45:53;;;;;;;4.00;3.00;;;;;;;2.95;91.16;98058.98;107655;1256;68993;-40
2024/02/03 10:48:21;;;;;;;5.00;3.50;;;;;;;3.03;91.26;98056.00;107659;1255;71459;-40
2024/02/03 10:50:53;;;;;;;3.80;3.30;;;;;;;3.11;91.30;98061.17;107562;1254;59685;-40
2024/02/03 10:53:40;;;;;;;6.50;3.90;;;;;;;3.13;91.60;98054.65;107621;1256;60332;-39
2024/02/03 10:56:10;;;;;;;4.40;3.40;;;;;;;3.17;91.65;98047.33;107610;1253;73910;-40
2024/02/03 10:58:39;;;;;;;4.50;3.30;;;;;;;3.24;91.53;98043.48;107595;1253;68560;-40
2024/02/03 11:01:20;;;;;;;4.10;2.90;;;;;;;3.31;91.30;98044.95;107315;1255;71178;-40
2024/02/03 11:03:49;;;;;;;5.40;4.00;;;;;;;3.35;91.41;98046.20;107702;1253;60351;-40
2024/02/03 11:06:26;;;;;;;5.00;3.80;;;;;;;3.35;91.50;98050.78;107583;1256;60270;-40
2024/02/03 11:09:13;;;;;;;5.10;3.50;;;;;;;3.38;91.89;98045.96;107567;1253;72984;-40
2024/02/03 11:11:44;;;;;;;3.50;3.10;;;;;;;3.47;91.77;98036.41;107708;1250;68624;-39
2024/02/03 11:14:14;;;;;;;4.30;3.40;;;;;;;3.53;91.72;98036.95;107742;1251;72522;-39
2024/02/03 11:16:41;;;;;;;3.70;2.90;;;;;;;3.53;91.75;98034.72;107837;1251;60393;-40
2024/02/03 11:19:12;;;;;;;3.60;3.10;;;;;;;3.56;91.62;98034.17;107761;1251;60491;-40
2024/02/03 11:21:41;;;;;;;5.50;3.20;;;;;;;3.63;91.43;98033.91;107733;1255;71582;-39
2024/02/03 11:24:10;;;;;;;3.40;2.30;;;;;;;3.68;91.42;98033.46;107711;1256;68701;-39
2024/02/03 11:26:37;;;;;;;4.00;3.10;;;;;;;3.69;91.79;98025.15;107763;1251;71848;-40
2024/02/03 11:29:06;;;;;;;3.50;3.00;;;;;;;3.70;91.93;98020.90;107693;1254;60425;-39
2024/02/03 11:31:33;;;;;;;4.10;3.00;;;;;;;3.79;91.66;98026.63;107785;1256;60313;-39
2024/02/03 11:34:01;;;;;;;5.30;3.20;;;;;;;3.82;91.54;98012.77;107743;1256;73999;-40
2024/02/03 11:36:29;;;;;;;4.60;3.20;;;;;;;3.81;91.91;98020.09;107701;1256;68637;-40